• Join FlightAware (Why Join?)
  • Login
  • US Flag 
10:53PM EDT


 

Airport Tracker/Info


-or-


 

Live Flight TrackerFlight Track Log ✈ N561EJ ✈ 03-May-2013 ✈ KMOB - KRYY

Flight Track Log - Related Links

Times and Time Zones

All times are in EDT time to prevent confusion due to time zone crossing. See the N561EJ flight status page for this flight to view local times or setup timezone preferences in your user account.

Time Position Orientation Groundspeed Altitude Reporting Facility
EDT Latitude Longitude Course Direction KTS MPH feet Rate Location/Type
10:48PM 30.7386 -88.2731 44° Northeast 277 319 3,000  Level Houston Center
10:49PM 30.7872 -88.2278 39° Northeast 227 261 5,800 2,460 Climbing Houston Center
10:50PM 30.8408 -88.1700 43° Northeast 255 293 8,100 2,400 Climbing Houston Center
10:51PM 30.8894 -88.1008 51° Northeast 274 315 10,800 2,760 Climbing Houston Center
10:52PM 30.9375 -88.0361 49° Northeast 269 310 13,800 2,460 Climbing Houston Center
10:53PM 30.9941 -87.8520 44° Northeast  Level FlightAware Approximate
10:53PM 30.9872 -87.9717 48° Northeast 269 310 15,900  Level Houston Center
10:54PM 31.0531 -87.8864 48° Northeast 294 338 18,000 1,860 Climbing Houston Center
10:55PM 31.1131 -87.8075 48° Northeast 329 379 19,700 1,620 Climbing Houston Center
10:56PM 31.1758 -87.7250 48° Northeast 340 391 21,400 1,620 Climbing Houston Center
10:57PM 31.2408 -87.6397 48° Northeast 352 405 23,100 1,680 Climbing Houston Center
10:58PM 31.3083 -87.5556 47° Northeast 356 410 24,900 1,620 Climbing Houston Center
10:59PM 31.3689 -87.4642 52° Northeast 359 413 26,500 1,020 Climbing Houston Center
11:00PM 31.4056 -87.3697 66° East 325 374 27,000 240 Climbing Houston Center
11:01PM 31.4464 -87.2686 65° Northeast 338 389 27,000  Level Houston Center
11:02PM 31.4903 -87.1583 65° Northeast 346 398 27,000  Level Atlanta Center
11:03PM 31.5450 -87.0556 58° Northeast 357 411 27,000  Level Atlanta Center
11:04PM 31.5931 -86.9594 60° Northeast 370 426 27,000  Level Atlanta Center
11:05PM 31.6542 -86.8542 56° Northeast 380 437 27,000  Level Atlanta Center
11:06PM 31.7150 -86.7389 58° Northeast 393 452 27,000  Level Atlanta Center
11:07PM 31.7800 -86.6236 56° Northeast 410 472 27,000  Level Atlanta Center
11:08PM 31.8492 -86.5083 55° Northeast 421 484 27,000  Level Atlanta Center
11:09PM 31.9267 -86.3953 51° Northeast 428 493 27,000  Level Atlanta Center
11:10PM 32.0181 -86.3047 40° Northeast 428 493 27,000  Level Atlanta Center
11:11PM 32.1156 -86.2189 37° Northeast 423 487 27,000  Level Atlanta Center
11:12PM 32.2236 -86.1258 36° Northeast 434 499 27,000  Level Atlanta Center
11:13PM 32.3150 -86.0319 41° Northeast 421 484 27,000  Level Atlanta Center
11:14PM 32.4103 -85.9456 37° Northeast 428 493 27,000 -60 Level Atlanta Center
11:15PM 32.5056 -85.8564 38° Northeast 428 493 26,900 -1,080 Descending Atlanta Center
11:16PM 32.5986 -85.7722 37° Northeast 428 493 24,900 -1,980 Descending Atlanta Center
11:17PM 32.6831 -85.6925 38° Northeast 406 467 23,000 -1,680 Descending Atlanta Center
11:18PM 32.7614 -85.6222 37° Northeast 376 433 21,600 -1,500 Descending Atlanta Center
11:19PM 32.8372 -85.5519 38° Northeast 349 402 20,100 -1,620 Descending Atlanta Center
11:20PM 32.9111 -85.4814 39° Northeast 338 389 18,400 -1,740 Descending Atlanta Center
11:21PM 32.9850 -85.4108 39° Northeast 338 389 16,700 -1,380 Descending Atlanta Center
11:22PM 33.0442 -85.3572 37° Northeast 338 389 15,700 -1,440 Descending Atlanta Center
11:23PM 33.1222 -85.2864 37° Northeast 330 380 13,900 -1,800 Descending Atlanta Center
11:24PM 33.1936 -85.2181 39° Northeast 330 380 12,200 -1,500 Descending Atlanta Center
11:25PM 33.2653 -85.1519 38° Northeast 324 373 11,000 -1,020 Descending Atlanta Center
11:26PM 33.3450 -85.1231 17° North 299 344 10,200 -1,260 Descending Atlanta Center
11:27PM 33.4283 -85.1217 North 299 344 8,500 -1,980 Descending Atlanta Center
11:28PM 33.5203 -85.1203 North 299 344 6,300 -2,220 Descending Atlanta Center
11:29PM 33.6017 -85.1161 North 294 338 4,100 -1,620 Descending Atlanta Center
11:30PM 33.6686 -85.1072 North 264 304 3,100 -600 Descending Atlanta Center
11:31PM 33.7064 -85.0725 37° Northeast 205 236 2,900 -120 Descending Atlanta Center
11:33PM 33.7833 -84.9833 44° Northeast 175 201 2,900  Level Atlanta TRACON
11:34PM 33.8167 -84.9500 40° Northeast 147 169 3,000  Climbing Atlanta TRACON
11:35PM 33.8500 -84.9167 40° Northeast 166 191 3,000  Level Atlanta TRACON
11:36PM 33.8833 -84.8667 51° Northeast 175 201 3,000  Level Atlanta TRACON
11:37PM 33.9167 -84.8333 40° Northeast 158 182 3,000  Level Atlanta TRACON
11:38PM 33.9667 -84.8333 360° North 170 196 3,000  Level Atlanta TRACON
11:39PM 34.0000 -84.8333 360° North 170 196 3,000 -180 Level Atlanta TRACON
11:40PM 34.0333 -84.8167 23° Northeast 162 186 2,700 -180 Descending Atlanta TRACON
11:41PM 34.0333 -84.7667 90° East 115 132 2,700  Level Atlanta TRACON
11:42PM 34.0167 -84.7333 121° Southeast 132 152 2,700  Level Atlanta TRACON